This is the latest recevied weather packets stored in our database for station/object DH3PAE-6. If no packets are shown the sender has not sent any weather packets the latest 10 day(s).
| Time | Temp. | Humidity | Pressure | Rain* | Wind** | Luminosity | Snow |
|---|---|---|---|---|---|---|---|
| 1777200620 | 14.44° C | 52% | 1023.3 hPa | 0 mm | - | 777 W/m² | - |
| 1777199420 | 14.44° C | 61% | 1023.5 hPa | 0 mm | - | 658 W/m² | - |
| 1777198817 | 13.33° C | 60% | 1023.4 hPa | 0 mm | - | 650 W/m² | - |
| 1777196417 | 11.67° C | 72% | 1023.4 hPa | 0 mm | - | 738 W/m² | - |
| 1777195217 | 11.11° C | 67% | 1023.4 hPa | 0 mm | - | 636 W/m² | - |
| 1777192217 | 10° C | 71% | 1023.4 hPa | 0 mm | - | 114 W/m² | - |
| 1777188637 | 8.89° C | 80% | 1023.7 hPa | 0 mm | - | 360 W/m² | - |
| 1777187417 | 7.22° C | 86% | 1023.5 hPa | 0 mm | - | 158 W/m² | - |
| 1777184416 | 6.11° C | 87% | 1023.4 hPa | 0 mm | - | 246 W/m² | - |
| 1777180217 | 1.67° C | 93% | 1022.4 hPa | 0 mm | - | 40 W/m² | - |
| 1777177816 | 1.11° C | 92% | 1022.1 hPa | 0 mm | - | 7 W/m² | - |
| 1777176616 | 1.67° C | 90% | 1022 hPa | 0 mm | - | 0 W/m² | - |
| 1777176017 | 1.67° C | 91% | 1022 hPa | 0 mm | - | 0 W/m² | - |
| 1777175440 | 1.67° C | 90% | 1021.9 hPa | 0 mm | - | 0 W/m² | - |
| 1777167016 | 1.67° C | 86% | 1021.6 hPa | 0 mm | - | 0 W/m² | - |
| 1777162816 | 2.22° C | 82% | 1021.2 hPa | 0 mm | - | 0 W/m² | - |
| 1777161059 | 2.78° C | 81% | 1021.1 hPa | 0 mm | - | 0 W/m² | - |
| 1777159216 | 2.22° C | 83% | 1020.9 hPa | 0 mm | - | 0 W/m² | - |
| 1777157436 | 2.78° C | 81% | 1020.6 hPa | 0 mm | - | 0 W/m² | - |
| 1777145418 | 7.22° C | 61% | 1019.3 hPa | 0 mm | - | 0 W/m² | - |
| 1777143617 | 8.89° C | 55% | 1019 hPa | 0 mm | - | 0 W/m² | - |
| 1777141218 | 11.67° C | 48% | 1018.7 hPa | 0 mm | - | 7 W/m² | - |
| 1777139418 | 12.78° C | 46% | 1018.3 hPa | 0 mm | - | 19 W/m² | - |
| 1777138217 | 13.33° C | 43% | 1018.3 hPa | 0 mm | - | 104 W/m² | - |
| 1777131040 | 15.56° C | 38% | 1018.3 hPa | 0 mm | - | 494 W/m² | - |
* Rain latest hour (hover to see other rain measurements)
** Current wind speed in m/s (hover to see current wind gust speed)